createdAt,value
2019-02-18T00:01:25.019Z,95911.58
2019-02-18T00:03:54.845Z,95914.42
2019-02-18T00:06:24.708Z,95920.51
2019-02-18T00:08:54.533Z,95919.49
2019-02-18T00:11:24.203Z,95919.49
2019-02-18T00:13:53.808Z,95923.41
2019-02-18T00:16:23.450Z,95915.05
2019-02-18T00:18:53.056Z,95915.05
2019-02-18T00:21:23.096Z,95920.97
2019-02-18T00:23:52.673Z,95916.52
2019-02-18T00:26:22.556Z,95920.09
2019-02-18T00:28:52.132Z,95919.41
2019-02-18T00:31:21.868Z,95917.81
2019-02-18T00:33:51.501Z,95916.70
2019-02-18T00:36:21.259Z,95909.00
2019-02-18T00:38:53.733Z,95908.52
2019-02-18T00:41:23.317Z,95899.97
2019-02-18T00:43:52.948Z,95899.97
2019-02-18T00:46:22.574Z,95898.47
2019-02-18T00:48:52.201Z,95901.89
2019-02-18T00:51:21.944Z,95890.39
2019-02-18T00:53:51.554Z,95890.39
2019-02-18T00:56:21.290Z,95889.31
2019-02-18T00:58:51.370Z,95891.92
2019-02-18T01:01:23.239Z,95882.70
2019-02-18T01:03:52.823Z,95881.73
2019-02-18T01:06:22.484Z,95881.73
2019-02-18T01:08:52.123Z,95875.30
2019-02-18T01:11:21.737Z,95875.30
2019-02-18T01:13:51.497Z,95869.98
2019-02-18T01:16:21.089Z,95868.11
2019-02-18T01:18:50.659Z,95862.23
2019-02-18T01:21:20.354Z,95862.23
2019-02-18T01:23:49.968Z,95864.52
2019-02-18T01:26:19.674Z,95864.52
2019-02-18T01:28:49.396Z,95864.77
2019-02-18T01:31:18.926Z,95864.50
2019-02-18T01:33:48.429Z,95863.88
2019-02-18T01:36:18.240Z,95862.41
2019-02-18T01:38:48.030Z,95855.25
2019-02-18T01:41:17.698Z,95852.88
2019-02-18T01:43:47.182Z,95852.88
2019-02-18T01:46:16.946Z,95855.49
2019-02-18T01:48:46.582Z,95845.89
2019-02-18T01:51:18.945Z,95848.20
2019-02-18T01:53:48.731Z,95848.20
2019-02-18T01:56:18.372Z,95843.28
2019-02-18T01:58:47.935Z,95843.28
2019-02-18T02:01:17.464Z,95847.92
2019-02-18T02:03:47.264Z,95845.27
2019-02-18T02:06:16.893Z,95843.72
2019-02-18T02:08:46.687Z,95838.64
2019-02-18T02:11:19.484Z,95838.64
2019-02-18T02:13:49.211Z,95837.36
2019-02-18T02:16:18.835Z,95837.36
2019-02-18T02:18:48.579Z,95843.56
2019-02-18T02:21:18.344Z,95839.47
2019-02-18T02:23:48.058Z,95845.37
2019-02-18T02:26:17.740Z,95831.20
2019-02-18T02:28:47.538Z,95831.20
2019-02-18T02:31:17.268Z,95834.50
2019-02-18T02:33:46.915Z,95846.11
2019-02-18T02:36:16.452Z,95841.06
2019-02-18T02:38:46.082Z,95836.27
2019-02-18T02:41:15.814Z,95833.07
2019-02-18T02:43:45.529Z,95833.07
2019-02-18T02:46:15.145Z,95837.42
2019-02-18T02:48:44.751Z,95840.14
2019-02-18T02:51:14.606Z,95836.92
2019-02-18T02:53:44.256Z,95844.22
2019-02-18T02:56:13.913Z,95829.64
2019-02-18T02:58:43.590Z,95832.59
2019-02-18T03:01:13.372Z,95832.51
2019-02-18T03:03:43.178Z,95835.98
2019-02-18T03:06:12.820Z,95835.98
2019-02-18T03:08:42.468Z,95835.84
2019-02-18T03:11:12.029Z,95835.84
2019-02-18T03:13:41.697Z,95831.33
2019-02-18T03:16:11.266Z,95839.05
2019-02-18T03:18:41.085Z,95848.50
2019-02-18T03:21:10.669Z,95848.50
2019-02-18T03:23:40.429Z,95841.67
2019-02-18T03:26:10.109Z,95845.78
2019-02-18T03:28:55.677Z,95846.22
2019-02-18T03:31:29.625Z,95849.52
2019-02-18T03:34:18.234Z,95839.85
2019-02-18T03:36:47.882Z,95839.85
2019-02-18T03:39:17.385Z,95843.69
2019-02-18T03:41:46.967Z,95838.00
2019-02-18T03:44:16.755Z,95847.80
2019-02-18T03:46:46.460Z,95840.48
2019-02-18T03:49:16.060Z,95838.27
2019-02-18T03:51:45.698Z,95838.27
2019-02-18T03:54:15.580Z,95842.50
2019-02-18T03:56:45.318Z,95844.42
2019-02-18T03:59:14.966Z,95847.16
2019-02-18T04:01:44.703Z,95839.78
2019-02-18T04:04:14.450Z,95844.12
2019-02-18T04:06:44.109Z,95844.30
2019-02-18T04:09:13.898Z,95836.45
2019-02-18T04:11:43.652Z,95836.45
2019-02-18T04:14:13.370Z,95841.97
2019-02-18T04:16:42.950Z,95841.36
2019-02-18T04:19:12.604Z,95846.81
2019-02-18T04:21:42.137Z,95846.81
2019-02-18T04:24:11.849Z,95840.58
2019-02-18T04:26:42.301Z,95840.58
2019-02-18T04:29:11.933Z,95840.58
2019-02-18T04:33:37.709Z,95844.32
2019-02-18T04:36:07.193Z,95842.76
2019-02-18T04:38:37.004Z,95845.09
2019-02-18T04:41:06.799Z,95853.48
2019-02-18T04:43:36.378Z,95848.50
2019-02-18T04:46:08.370Z,95855.70
2019-02-18T04:48:37.908Z,95857.52
2019-02-18T04:51:07.890Z,95857.41
2019-02-18T04:53:37.528Z,95857.41
2019-02-18T04:56:07.396Z,95853.93
2019-02-18T04:58:36.931Z,95853.93
2019-02-18T05:01:06.547Z,95868.09
2019-02-18T05:03:36.297Z,95868.09
2019-02-18T05:06:05.805Z,95868.48
2019-02-18T05:08:35.334Z,95868.48
2019-02-18T05:11:05.180Z,95873.16
2019-02-18T05:13:34.759Z,95873.16
2019-02-18T05:16:04.564Z,95866.00
2019-02-18T05:18:34.321Z,95870.70
2019-02-18T05:21:03.938Z,95870.70
2019-02-18T05:23:33.494Z,95877.05
2019-02-18T05:26:03.230Z,95874.20
2019-02-18T05:28:35.476Z,95874.99
2019-02-18T05:31:05.115Z,95874.99
2019-02-18T05:33:34.740Z,95878.31
2019-02-18T05:36:04.440Z,95877.73
2019-02-18T05:38:34.145Z,95876.87
2019-02-18T05:41:03.914Z,95881.12
2019-02-18T05:43:33.656Z,95878.27
2019-02-18T05:46:03.271Z,95887.74
2019-02-18T05:48:33.992Z,95885.67
2019-02-18T05:51:04.124Z,95885.67
2019-02-18T05:53:33.991Z,95889.99
2019-02-18T05:56:03.802Z,95898.88
2019-02-18T05:58:33.445Z,95889.69
2019-02-18T06:01:03.124Z,95895.95
2019-02-18T06:03:32.607Z,95895.05
2019-02-18T06:06:02.125Z,95895.05
2019-02-18T06:08:31.760Z,95899.75
2019-02-18T06:11:01.587Z,95899.61
2019-02-18T06:13:31.138Z,95902.84
2019-02-18T06:16:00.825Z,95907.55
2019-02-18T06:18:30.495Z,95912.20
2019-02-18T06:21:00.120Z,95912.20
2019-02-18T06:23:31.725Z,95909.00
2019-02-18T06:26:01.442Z,95909.00
2019-02-18T06:28:31.311Z,95920.35
2019-02-18T06:31:01.088Z,95920.35
2019-02-18T06:33:30.913Z,95922.13
2019-02-18T06:36:00.681Z,95912.77
2019-02-18T06:38:30.200Z,95912.77
2019-02-18T06:41:01.248Z,95926.62
2019-02-18T06:43:30.975Z,95920.28
2019-02-18T06:46:28.675Z,95924.29
2019-02-18T06:49:06.160Z,95917.94
2019-02-18T06:51:35.923Z,95926.32
2019-02-18T06:54:05.657Z,95919.69
2019-02-18T06:57:09.695Z,95917.92
2019-02-18T06:59:46.545Z,95919.11
2019-02-18T07:02:23.238Z,95928.66
2019-02-18T07:05:07.970Z,95926.03
2019-02-18T07:07:47.053Z,95930.63
2019-02-18T07:10:29.741Z,95924.13
2019-02-18T07:12:59.509Z,95925.45
2019-02-18T07:15:29.138Z,95928.61
2019-02-18T07:17:58.908Z,95921.63
2019-02-18T07:20:28.613Z,95928.77
2019-02-18T07:22:58.261Z,95933.65
2019-02-18T07:25:28.004Z,95932.41
2019-02-18T07:27:57.681Z,95925.53
2019-02-18T07:30:27.592Z,95921.67
2019-02-18T07:32:57.343Z,95923.11
2019-02-18T07:35:27.002Z,95921.73
2019-02-18T07:37:56.635Z,95922.73
2019-02-18T07:40:26.150Z,95921.66
2019-02-18T07:42:55.923Z,95923.98
2019-02-18T07:45:25.683Z,95917.51
2019-02-18T07:47:55.537Z,95920.41
2019-02-18T07:50:25.121Z,95909.27
2019-02-18T07:52:54.987Z,95918.83
2019-02-18T07:55:24.736Z,95915.92
2019-02-18T07:57:54.394Z,95912.91
2019-02-18T08:00:24.051Z,95914.97
2019-02-18T08:02:53.699Z,95913.84
2019-02-18T08:05:23.388Z,95919.43
2019-02-18T08:07:53.057Z,95915.50
2019-02-18T08:10:22.739Z,95913.42
2019-02-18T08:12:52.555Z,95917.88
2019-02-18T08:15:22.413Z,95914.59
2019-02-18T08:17:51.957Z,95914.70
2019-02-18T08:20:21.562Z,95920.98
2019-02-18T08:22:51.264Z,95921.88
2019-02-18T08:25:21.016Z,95918.86
2019-02-18T08:27:50.858Z,95923.34
2019-02-18T08:30:20.383Z,95918.59
2019-02-18T08:32:50.043Z,95914.98
2019-02-18T08:35:19.697Z,95912.65
2019-02-18T08:37:49.240Z,95917.26
2019-02-18T08:40:22.559Z,95916.13
2019-02-18T08:42:50.389Z,95907.23
2019-02-18T08:45:20.025Z,95896.91
2019-02-18T08:47:49.711Z,95901.66
2019-02-18T08:50:19.398Z,95903.91
2019-02-18T08:52:49.055Z,95911.62
2019-02-18T08:55:18.540Z,95901.38
2019-02-18T08:57:48.103Z,95899.22
2019-02-18T09:00:18.145Z,95904.12
2019-02-18T09:02:47.857Z,95899.53
2019-02-18T09:05:18.664Z,95898.25
2019-02-18T09:07:48.321Z,95896.25
2019-02-18T09:10:18.063Z,95906.06
2019-02-18T09:12:47.762Z,95897.91
2019-02-18T09:15:18.638Z,95897.50
2019-02-18T09:17:48.273Z,95899.96
2019-02-18T09:20:17.997Z,95896.53
2019-02-18T09:23:09.607Z,95899.11
2019-02-18T09:25:45.464Z,95901.39
2019-02-18T09:28:15.033Z,95899.84
2019-02-18T09:30:47.173Z,95886.80
2019-02-18T09:33:16.880Z,95892.55
2019-02-18T09:35:47.473Z,95893.02
2019-02-18T09:38:24.339Z,95885.16
2019-02-18T09:40:51.549Z,95881.75
2019-02-18T09:44:13.809Z,95887.45
2019-02-18T09:46:43.517Z,95881.02
2019-02-18T09:49:13.170Z,95880.02
2019-02-18T09:51:42.837Z,95874.64
2019-02-18T09:54:12.492Z,95869.66
2019-02-18T09:56:42.410Z,95873.70
2019-02-18T09:59:11.960Z,95867.60
2019-02-18T10:01:43.210Z,95864.08
2019-02-18T10:04:13.938Z,95854.37
2019-02-18T10:06:43.508Z,95857.81
2019-02-18T10:09:13.133Z,95843.67
2019-02-18T10:11:42.895Z,95842.32
2019-02-18T10:14:12.544Z,95836.28
2019-02-18T10:16:43.182Z,95834.67
2019-02-18T10:19:12.878Z,95829.53
2019-02-18T10:21:42.415Z,95829.44
2019-02-18T10:24:12.149Z,95831.62
2019-02-18T10:26:43.347Z,95825.28
2019-02-18T10:29:13.042Z,95822.23
2019-02-18T10:31:42.883Z,95820.39
2019-02-18T10:34:12.590Z,95810.83
2019-02-18T10:36:43.658Z,95807.76
2019-02-18T10:39:13.269Z,95808.13
2019-02-18T10:41:42.888Z,95803.20
2019-02-18T10:44:12.422Z,95802.89
2019-02-18T10:46:42.054Z,95801.20
2019-02-18T10:49:19.322Z,95794.24
2019-02-18T10:51:43.037Z,95796.88
2019-02-18T10:54:13.253Z,95788.09
2019-02-18T10:56:43.101Z,95777.87
2019-02-18T10:59:12.728Z,95776.95
2019-02-18T11:01:42.458Z,95767.80
2019-02-18T11:04:12.201Z,95759.40
2019-02-18T11:06:42.042Z,95761.20
2019-02-18T11:09:12.113Z,95766.56
2019-02-18T11:11:41.992Z,95757.22
2019-02-18T11:14:11.762Z,95757.77
2019-02-18T11:16:41.540Z,95750.30
2019-02-18T11:19:11.158Z,95745.00
2019-02-18T11:21:40.881Z,95740.94
2019-02-18T11:24:10.398Z,95735.84
2019-02-18T11:26:40.207Z,95735.27
2019-02-18T11:29:10.289Z,95731.13
2019-02-18T11:31:39.992Z,95733.20
2019-02-18T11:34:09.526Z,95727.66
2019-02-18T11:36:39.202Z,95726.52
2019-02-18T11:39:12.847Z,95722.19
2019-02-18T11:41:43.002Z,95724.12
2019-02-18T11:44:12.624Z,95717.37
2019-02-18T11:46:42.457Z,95715.20
2019-02-18T11:49:12.147Z,95710.95
2019-02-18T11:51:41.907Z,95707.09
2019-02-18T11:54:11.405Z,95704.50
2019-02-18T11:56:41.052Z,95699.12
2019-02-18T11:59:23.764Z,95694.44
2019-02-18T12:01:44.975Z,95680.66
2019-02-18T12:04:14.736Z,95682.86
2019-02-18T12:06:44.624Z,95682.16
2019-02-18T12:09:14.399Z,95673.39
2019-02-18T12:11:44.067Z,95670.13
2019-02-18T12:14:13.762Z,95657.08
2019-02-18T12:16:43.381Z,95661.73
2019-02-18T12:19:13.177Z,95651.70
2019-02-18T12:21:42.925Z,95654.92
2019-02-18T12:24:12.837Z,95653.09
2019-02-18T12:26:43.314Z,95654.39
2019-02-18T12:29:14.173Z,95651.27
2019-02-18T12:31:44.071Z,95647.77
2019-02-18T12:34:14.920Z,95640.37
2019-02-18T12:36:46.407Z,95643.72
2019-02-18T12:39:16.131Z,95632.28
2019-02-18T12:41:49.004Z,95637.17
2019-02-18T12:44:18.397Z,95621.50
2019-02-18T12:46:49.216Z,95617.66
2019-02-18T12:49:19.692Z,95626.66
2019-02-18T12:51:49.702Z,95622.41
2019-02-18T12:54:21.764Z,95622.92
2019-02-18T12:56:52.487Z,95612.63
2019-02-18T12:59:23.354Z,95618.91
2019-02-18T13:01:53.304Z,95606.08
2019-02-18T13:04:24.423Z,95613.44
2019-02-18T13:06:54.821Z,95611.96
2019-02-18T13:09:24.648Z,95616.65
2019-02-18T13:11:58.913Z,95612.80
2019-02-18T13:14:27.502Z,95613.97
2019-02-18T13:16:57.451Z,95607.02
2019-02-18T13:19:27.230Z,95605.21
2019-02-18T13:21:56.858Z,95605.38
2019-02-18T13:24:27.770Z,95603.28
2019-02-18T13:26:58.145Z,95603.35
2019-02-18T13:29:28.632Z,95607.92
2019-02-18T13:31:59.082Z,95600.80
2019-02-18T13:34:29.246Z,95594.69
2019-02-18T13:36:59.321Z,95594.98
2019-02-18T13:39:30.992Z,95593.55
2019-02-18T13:42:07.449Z,95590.77
2019-02-18T13:44:36.498Z,95591.27
2019-02-18T13:47:07.919Z,95584.84
2019-02-18T13:49:38.910Z,95582.74
2019-02-18T13:52:08.886Z,95580.22
2019-02-18T13:54:40.814Z,95581.59
2019-02-18T13:57:11.925Z,95578.90
2019-02-18T13:59:42.287Z,95584.83
2019-02-18T14:02:12.859Z,95583.08
2019-02-18T14:04:42.920Z,95581.95
2019-02-18T14:07:13.543Z,95579.10
2019-02-18T14:09:43.702Z,95576.20
2019-02-18T14:12:16.332Z,95573.22
2019-02-18T14:14:46.685Z,95569.80
2019-02-18T14:17:17.424Z,95572.37
2019-02-18T14:19:47.888Z,95570.62
2019-02-18T14:22:18.222Z,95565.55
2019-02-18T14:24:47.809Z,95569.31
2019-02-18T14:27:20.312Z,95569.31
2019-02-18T14:29:50.785Z,95568.66
2019-02-18T14:32:20.444Z,95569.11
2019-02-18T14:34:50.663Z,95569.97
2019-02-18T14:37:21.402Z,95567.52
2019-02-18T14:39:52.212Z,95565.98
2019-02-18T14:42:24.585Z,95569.62
2019-02-18T14:44:55.087Z,95565.03
2019-02-18T14:47:25.489Z,95567.56
2019-02-18T14:49:55.864Z,95563.64
2019-02-18T14:52:27.445Z,95568.80
2019-02-18T14:54:58.330Z,95575.09
2019-02-18T14:57:29.101Z,95568.18
2019-02-18T14:59:59.185Z,95571.31
2019-02-18T15:02:29.505Z,95568.05
2019-02-18T15:05:00.293Z,95568.82
2019-02-18T15:07:30.174Z,95563.24
2019-02-18T15:10:01.544Z,95564.55
2019-02-18T15:12:33.261Z,95562.98
2019-02-18T15:15:03.870Z,95562.86
2019-02-18T15:17:34.998Z,95561.52
2019-02-18T15:20:05.043Z,95567.81
2019-02-18T15:22:35.409Z,95561.66
2019-02-18T15:25:05.926Z,95560.69
2019-02-18T15:27:38.494Z,95556.38
2019-02-18T15:30:12.095Z,95565.09
2019-02-18T15:32:42.181Z,95561.22
2019-02-18T15:35:12.703Z,95557.92
2019-02-18T15:37:42.991Z,95558.69
2019-02-18T15:40:14.394Z,95564.81
2019-02-18T15:42:45.899Z,95557.37
2019-02-18T15:45:17.402Z,95560.81
2019-02-18T15:47:47.144Z,95565.33
2019-02-18T15:50:19.088Z,95568.86
2019-02-18T15:52:50.431Z,95567.40
2019-02-18T15:55:21.328Z,95566.28
2019-02-18T15:57:52.416Z,95570.37
2019-02-18T16:00:24.156Z,95564.70
2019-02-18T16:02:54.619Z,95573.95
2019-02-18T16:05:24.800Z,95572.49
2019-02-18T16:07:56.469Z,95571.60
2019-02-18T16:10:26.577Z,95570.22
2019-02-18T16:12:56.585Z,95568.58
2019-02-18T16:15:27.390Z,95570.64
2019-02-18T16:17:57.462Z,95573.22
2019-02-18T16:20:27.977Z,95575.06
2019-02-18T16:22:58.888Z,95573.81
2019-02-18T16:25:29.718Z,95572.41
2019-02-18T16:28:00.176Z,95569.16
2019-02-18T16:30:30.242Z,95576.91
2019-02-18T16:33:00.640Z,95581.34
2019-02-18T16:35:31.008Z,95582.38
2019-02-18T16:38:01.376Z,95580.94
2019-02-18T16:40:31.972Z,95592.26
2019-02-18T16:43:03.336Z,95595.58
2019-02-18T16:45:36.024Z,95592.31
2019-02-18T16:48:07.393Z,95588.64
2019-02-18T16:50:37.779Z,95597.65
2019-02-18T16:53:07.856Z,95597.44
2019-02-18T16:55:38.607Z,95592.25
2019-02-18T16:58:08.633Z,95603.65
2019-02-18T17:00:39.040Z,95607.43
2019-02-18T17:03:08.993Z,95603.73
2019-02-18T17:05:39.543Z,95610.11
2019-02-18T17:08:10.838Z,95605.42
2019-02-18T17:10:40.554Z,95608.31
2019-02-18T17:13:10.290Z,95609.49
2019-02-18T17:15:39.995Z,95611.48
2019-02-18T17:18:09.707Z,95616.66
2019-02-18T17:20:39.255Z,95612.17
2019-02-18T17:23:09.378Z,95615.36
2019-02-18T17:25:39.069Z,95617.15
2019-02-18T17:28:08.755Z,95618.19
2019-02-18T17:30:38.637Z,95622.18
2019-02-18T17:33:08.336Z,95621.76
2019-02-18T17:35:38.235Z,95622.10
2019-02-18T17:38:08.400Z,95626.27
2019-02-18T17:40:38.397Z,95626.95
2019-02-18T17:43:16.052Z,95630.79
2019-02-18T17:45:39.638Z,95636.13
2019-02-18T17:48:09.451Z,95635.26
2019-02-18T17:50:39.278Z,95632.77
2019-02-18T17:53:09.105Z,95636.09
2019-02-18T17:55:38.775Z,95639.95
2019-02-18T17:58:10.284Z,95636.45
2019-02-18T18:00:41.624Z,95635.43
2019-02-18T18:03:11.480Z,95639.80
2019-02-18T18:05:41.561Z,95636.31
2019-02-18T18:08:11.551Z,95644.58
2019-02-18T18:10:41.278Z,95643.95
2019-02-18T18:13:11.134Z,95647.39
2019-02-18T18:15:40.866Z,95647.09
2019-02-18T18:18:13.025Z,95648.37
2019-02-18T18:20:43.684Z,95647.97
2019-02-18T18:23:13.449Z,95647.52
2019-02-18T18:25:43.219Z,95647.97
2019-02-18T18:28:12.738Z,95649.63
2019-02-18T18:30:42.425Z,95656.00
2019-02-18T18:33:12.016Z,95651.36
2019-02-18T18:35:41.826Z,95653.02
2019-02-18T18:38:11.645Z,95655.69
2019-02-18T18:40:42.423Z,95648.14
2019-02-18T18:43:12.351Z,95650.41
2019-02-18T18:45:42.131Z,95656.44
2019-02-18T18:48:12.222Z,95654.91
2019-02-18T18:50:41.802Z,95659.34
2019-02-18T18:53:11.461Z,95659.45
2019-02-18T18:55:41.344Z,95661.19
2019-02-18T18:58:11.205Z,95661.42
2019-02-18T19:00:40.892Z,95662.97
2019-02-18T19:03:10.628Z,95672.86
2019-02-18T19:05:40.344Z,95671.16
2019-02-18T19:08:10.053Z,95673.29
2019-02-18T19:10:40.029Z,95673.13
2019-02-18T19:13:10.901Z,95669.95
2019-02-18T19:15:49.302Z,95675.79
2019-02-18T19:18:12.366Z,95679.94
2019-02-18T19:20:42.040Z,95676.73
2019-02-18T19:23:11.684Z,95679.10
2019-02-18T19:25:41.395Z,95683.05
2019-02-18T19:28:11.237Z,95679.58
2019-02-18T19:30:40.823Z,95680.79
2019-02-18T19:33:10.546Z,95680.30
2019-02-18T19:35:40.300Z,95684.84
2019-02-18T19:38:09.917Z,95686.96
2019-02-18T19:40:39.681Z,95682.66
2019-02-18T19:43:09.575Z,95682.75
2019-02-18T19:45:39.224Z,95687.34
2019-02-18T19:48:09.076Z,95687.34
2019-02-18T19:50:38.846Z,95689.20
2019-02-18T19:53:08.627Z,95686.25
2019-02-18T19:55:38.458Z,95690.98
2019-02-18T19:58:07.983Z,95688.88
2019-02-18T20:00:37.861Z,95693.41
2019-02-18T20:03:07.391Z,95693.41
2019-02-18T20:05:37.246Z,95695.55
2019-02-18T20:08:06.936Z,95682.73
2019-02-18T20:10:36.874Z,95693.94
2019-02-18T20:13:06.625Z,95693.94
2019-02-18T20:15:36.273Z,95687.27
2019-02-18T20:18:05.938Z,95686.34
2019-02-18T20:20:35.711Z,95687.16
2019-02-18T20:23:05.415Z,95683.98
2019-02-18T20:25:35.306Z,95683.18
2019-02-18T20:28:05.158Z,95673.37
2019-02-18T20:30:34.949Z,95673.37
2019-02-18T20:33:04.684Z,95680.39
2019-02-18T20:35:34.351Z,95687.52
2019-02-18T20:38:04.502Z,95687.52
2019-02-18T20:40:34.058Z,95684.84
2019-02-18T20:43:03.735Z,95684.84
2019-02-18T20:45:33.401Z,95681.60
2019-02-18T20:48:03.092Z,95679.36
2019-02-18T20:50:32.688Z,95681.28
2019-02-18T20:53:02.693Z,95687.99
2019-02-18T20:55:32.572Z,95676.91
2019-02-18T20:58:03.882Z,95681.86
2019-02-18T21:00:33.583Z,95684.58
2019-02-18T21:03:03.392Z,95682.44
2019-02-18T21:05:33.121Z,95682.44
2019-02-18T21:08:02.938Z,95682.52
2019-02-18T21:10:32.594Z,95680.36
2019-02-18T21:13:02.196Z,95686.87
2019-02-18T21:15:31.771Z,95689.06
2019-02-18T21:18:01.563Z,95692.72
2019-02-18T21:20:31.573Z,95688.05
2019-02-18T21:23:01.329Z,95685.27
2019-02-18T21:25:30.875Z,95690.41
2019-02-18T21:28:00.774Z,95688.74
2019-02-18T21:30:30.384Z,95681.61
2019-02-18T21:32:59.992Z,95690.19
2019-02-18T21:35:29.894Z,95690.25
2019-02-18T21:37:59.464Z,95692.14
2019-02-18T21:40:29.087Z,95693.75
2019-02-18T21:42:58.722Z,95689.44
2019-02-18T21:45:28.578Z,95690.42
2019-02-18T21:47:58.064Z,95683.72
2019-02-18T21:50:27.479Z,95697.80
2019-02-18T21:52:57.234Z,95691.33
2019-02-18T21:55:26.841Z,95689.63
2019-02-18T21:57:56.306Z,95693.91
2019-02-18T22:00:26.068Z,95698.38
2019-02-18T22:02:55.765Z,95702.27
2019-02-18T22:05:25.477Z,95697.45
2019-02-18T22:07:55.291Z,95700.92
2019-02-18T22:10:25.047Z,95701.12
2019-02-18T22:12:54.833Z,95703.39
2019-02-18T22:15:24.487Z,95701.33
2019-02-18T22:17:54.176Z,95700.22
2019-02-18T22:20:23.804Z,95702.64
2019-02-18T22:22:53.431Z,95702.16
2019-02-18T22:25:23.196Z,95708.75
2019-02-18T22:27:52.985Z,95706.62
2019-02-18T22:30:22.703Z,95708.10
2019-02-18T22:32:52.330Z,95712.44
2019-02-18T22:35:22.055Z,95705.53
2019-02-18T22:37:51.655Z,95705.52
2019-02-18T22:40:21.199Z,95706.65
2019-02-18T22:42:50.909Z,95703.95
2019-02-18T22:45:20.708Z,95705.21
2019-02-18T22:47:50.445Z,95712.09
2019-02-18T22:50:20.315Z,95715.64
2019-02-18T22:52:49.892Z,95712.58
2019-02-18T22:55:19.617Z,95717.58
2019-02-18T22:57:49.409Z,95713.87
2019-02-18T23:00:52.203Z,95714.05
2019-02-18T23:03:22.771Z,95711.76
2019-02-18T23:05:52.770Z,95713.98
2019-02-18T23:08:22.545Z,95717.20
2019-02-18T23:10:52.367Z,95721.89
2019-02-18T23:13:22.246Z,95721.45
2019-02-18T23:15:51.767Z,95718.25
2019-02-18T23:18:21.170Z,95715.53
2019-02-18T23:20:50.898Z,95719.55
2019-02-18T23:23:20.538Z,95722.13
2019-02-18T23:25:50.364Z,95716.20
2019-02-18T23:28:20.458Z,95723.09
2019-02-18T23:30:50.178Z,95720.34
2019-02-18T23:33:19.835Z,95716.67
2019-02-18T23:35:49.481Z,95715.06
2019-02-18T23:38:19.209Z,95719.22
2019-02-18T23:40:48.802Z,95717.95
2019-02-18T23:43:18.883Z,95717.60
2019-02-18T23:45:48.800Z,95712.30
2019-02-18T23:48:18.466Z,95706.85
2019-02-18T23:50:48.208Z,95709.89
2019-02-18T23:53:18.056Z,95704.13
2019-02-18T23:55:47.813Z,95703.15
2019-02-18T23:58:17.442Z,95700.59
